Time;durP1;ratioP1;P1;durP2;ratioP2;P2;SDS_P1;SDS_P2;PMS_P1;PMS_P2;Temp;Humidity;BMP_temperature;BMP_pressure;BME280_temperature;BME280_humidity;BME280_pressure;Samples;Min_cycle;Max_cycle;Signal;HPM_P1;HPM_P2
2022/01/08 00:00:19;;;;;;;6.30;5.80;;;16.60;65.80;;;;;;5067489;28;43392;-70
2022/01/08 00:02:48;;;;;;;6.20;5.80;;;16.60;65.90;;;;;;5065943;28;45494;-70
2022/01/08 00:05:16;;;;;;;5.77;5.47;;;16.50;66.70;;;;;;5067666;28;43936;-70
2022/01/08 00:07:45;;;;;;;5.17;4.87;;;16.50;66.20;;;;;;5068113;28;43397;-71
2022/01/08 00:10:13;;;;;;;5.80;5.50;;;16.50;66.40;;;;;;5068347;28;44016;-70
2022/01/08 00:12:42;;;;;;;5.97;5.57;;;16.40;66.50;;;;;;5067784;28;43975;-70
2022/01/08 00:15:11;;;;;;;5.57;5.27;;;16.30;66.60;;;;;;5067453;28;43901;-70
2022/01/08 00:17:39;;;;;;;5.43;5.13;;;16.30;66.70;;;;;;5067981;28;43977;-70
2022/01/08 00:20:08;;;;;;;5.57;5.33;;;16.30;66.80;;;;;;5067016;28;43909;-70
2022/01/08 00:22:36;;;;;;;5.67;5.27;;;16.20;66.90;;;;;;5066422;28;46286;-70
2022/01/08 00:25:05;;;;;;;5.50;5.20;;;16.20;67.00;;;;;;5066198;28;44582;-70
2022/01/08 00:27:34;;;;;;;5.57;5.23;;;16.20;67.00;;;;;;5083240;28;44068;-70
2022/01/08 00:30:03;;;;;;;5.93;5.53;;;16.20;67.00;;;;;;5068011;28;43586;-70
2022/01/08 00:32:32;;;;;;;6.40;6.00;;;16.30;66.90;;;;;;5067597;28;44363;-69
2022/01/08 00:35:00;;;;;;;4.87;4.60;;;16.30;66.50;;;;;;5060852;28;43960;-70
2022/01/08 00:37:28;;;;;;;4.90;4.70;;;16.40;66.40;;;;;;5061166;28;43937;-70
2022/01/08 00:39:56;;;;;;;5.20;4.90;;;16.40;66.50;;;;;;5060220;28;43957;-70
2022/01/08 00:42:25;;;;;;;5.67;5.33;;;16.30;66.60;;;;;;5061037;28;43972;-69
2022/01/08 00:44:53;;;;;;;5.20;4.90;;;16.30;66.70;;;;;;5060431;28;44089;-69
2022/01/08 00:47:22;;;;;;;5.00;4.70;;;16.30;66.80;;;;;;5067401;28;44060;-70
2022/01/08 00:49:51;;;;;;;5.20;4.90;;;16.30;66.90;;;;;;5067593;28;43390;-70
2022/01/08 00:52:20;;;;;;;5.53;5.23;;;16.20;66.90;;;;;;5065792;28;45681;-69
2022/01/08 00:54:48;;;;;;;4.93;4.73;;;16.20;67.00;;;;;;5066957;28;44028;-71
2022/01/08 00:57:16;;;;;;;5.37;5.07;;;16.20;67.00;;;;;;5067360;28;43770;-70
2022/01/08 00:59:44;;;;;;;4.67;4.47;;;16.20;67.10;;;;;;5066080;28;43970;-70
2022/01/08 01:02:13;;;;;;;4.83;4.60;;;16.20;67.20;;;;;;5066650;28;43971;-70
2022/01/08 01:04:42;;;;;;;5.10;4.80;;;16.20;67.20;;;;;;5066903;28;43837;-71
2022/01/08 01:07:11;;;;;;;5.00;4.70;;;16.20;67.20;;;;;;5067037;28;44047;-70
2022/01/08 01:09:40;;;;;;;5.00;4.70;;;16.20;67.20;;;;;;5067792;28;44099;-69
2022/01/08 01:12:08;;;;;;;4.60;4.40;;;16.20;67.10;;;;;;5066724;28;44120;-71
2022/01/08 01:14:37;;;;;;;4.80;4.60;;;16.30;66.80;;;;;;5067019;28;44019;-69
2022/01/08 01:17:06;;;;;;;4.73;4.47;;;16.40;66.30;;;;;;5067245;28;44068;-69
2022/01/08 01:19:35;;;;;;;4.73;4.47;;;16.50;65.80;;;;;;5067387;28;44183;-70
2022/01/08 01:22:05;;;;;;;4.67;4.47;;;16.60;65.50;;;;;;5066599;28;43970;-70
2022/01/08 01:24:35;;;;;;;4.37;4.17;;;16.60;65.30;;;;;;5066806;28;44153;-69
2022/01/08 01:27:39;;;;;;;4.47;4.27;;;16.60;65.60;;;;;;5066891;28;43949;-71
2022/01/08 01:30:12;;;;;;;4.87;4.67;;;16.50;65.80;;;;;;5067079;28;44034;-69
2022/01/08 01:41:23;;;;;;;4.20;4.00;;;16.30;66.50;;;;;;5067096;28;43984;-71
2022/01/08 01:49:22;;;;;;;3.80;3.70;;;16.20;66.80;;;;;;5066817;28;44280;-70
2022/01/08 01:51:50;;;;;;;4.17;3.97;;;16.20;66.90;;;;;;5066804;28;43988;-70
2022/01/08 01:54:19;;;;;;;3.77;3.67;;;16.30;66.70;;;;;;5066273;28;43966;-69
2022/01/08 01:56:47;;;;;;;3.80;3.70;;;16.30;66.40;;;;;;5064812;28;45220;-71
2022/01/08 01:59:15;;;;;;;3.63;3.53;;;16.40;66.20;;;;;;5066267;28;43919;-69
2022/01/08 02:01:43;;;;;;;4.03;3.93;;;16.40;66.30;;;;;;5065063;28;43553;-70
2022/01/08 02:04:11;;;;;;;3.70;3.60;;;16.30;66.40;;;;;;5066526;28;43851;-70
2022/01/08 02:06:39;;;;;;;3.90;3.80;;;16.30;66.50;;;;;;5064619;28;45194;-70
2022/01/08 02:09:07;;;;;;;3.83;3.70;;;16.30;66.60;;;;;;5066437;28;43807;-71
2022/01/08 02:11:52;;;;;;;3.97;3.87;;;16.30;66.70;;;;;;5065553;28;44105;-69
2022/01/08 02:14:20;;;;;;;3.70;3.60;;;16.20;66.70;;;;;;5065960;28;43583;-69
2022/01/08 02:16:48;;;;;;;3.50;3.40;;;16.20;66.80;;;;;;5064455;28;44991;-70
2022/01/08 02:19:16;;;;;;;3.80;3.67;;;16.20;66.80;;;;;;5066155;28;43956;-69
2022/01/08 02:21:49;;;;;;;3.33;3.23;;;16.20;66.80;;;;;;5066711;28;43577;-70
2022/01/08 02:24:17;;;;;;;3.80;3.67;;;16.20;66.90;;;;;;5062263;28;45570;-70
2022/01/08 02:26:45;;;;;;;3.63;3.53;;;16.20;66.90;;;;;;5062875;28;43979;-71
2022/01/08 02:29:13;;;;;;;3.60;3.50;;;16.20;66.90;;;;;;5078624;28;44018;-70
2022/01/08 02:31:41;;;;;;;3.23;3.13;;;16.20;67.00;;;;;;5063562;28;43523;-70
2022/01/08 02:34:09;;;;;;;3.37;3.27;;;16.20;66.90;;;;;;5063255;28;44042;-71
2022/01/08 02:36:39;;;;;;;3.47;3.37;;;16.30;66.60;;;;;;5063043;28;44019;-70
2022/01/08 02:39:08;;;;;;;3.30;3.20;;;16.50;66.20;;;;;;5063477;28;43317;-70
2022/01/08 02:41:38;;;;;;;3.37;3.27;;;16.60;65.70;;;;;;5069933;28;43964;-70
2022/01/08 02:44:07;;;;;;;3.40;3.30;;;16.70;65.50;;;;;;5069268;28;43897;-70
2022/01/08 02:46:35;;;;;;;3.60;3.50;;;16.60;65.30;;;;;;5069198;28;43897;-70
2022/01/08 02:49:03;;;;;;;3.30;3.20;;;16.60;65.50;;;;;;5069193;28;44003;-71
2022/01/08 02:51:33;;;;;;;3.10;3.00;;;16.50;65.70;;;;;;5069728;28;43868;-70
2022/01/08 02:54:03;;;;;;;3.00;2.90;;;16.40;65.90;;;;;;5068956;28;44095;-69
2022/01/08 02:56:32;;;;;;;3.33;3.23;;;16.40;66.10;;;;;;5068817;28;43817;-70
2022/01/08 02:59:00;;;;;;;3.27;3.17;;;16.30;66.30;;;;;;5069048;28;43336;-70
2022/01/08 03:01:30;;;;;;;3.60;3.50;;;16.30;66.40;;;;;;5069626;28;43593;-70
2022/01/08 03:03:58;;;;;;;3.10;3.00;;;16.30;66.50;;;;;;5068833;28;44840;-70
2022/01/08 03:06:26;;;;;;;3.37;3.27;;;16.30;66.60;;;;;;5068867;28;43419;-70
2022/01/08 03:08:55;;;;;;;3.17;3.07;;;16.20;66.60;;;;;;5069102;28;44003;-70
2022/01/08 03:11:23;;;;;;;3.00;2.90;;;16.20;66.80;;;;;;5068020;28;43881;-70
2022/01/08 03:13:52;;;;;;;2.80;2.80;;;16.20;66.90;;;;;;5067179;28;44296;-70
2022/01/08 03:16:21;;;;;;;2.97;2.87;;;16.30;66.70;;;;;;5068684;28;43829;-71
2022/01/08 03:18:49;;;;;;;2.90;2.80;;;16.30;66.30;;;;;;5069100;28;43964;-70
2022/01/08 03:21:20;;;;;;;3.10;3.00;;;16.40;66.20;;;;;;5069141;28;44043;-70
2022/01/08 03:23:53;;;;;;;2.77;2.77;;;16.30;66.20;;;;;;5068928;28;44037;-69
2022/01/08 03:26:23;;;;;;;2.70;2.60;;;16.30;66.40;;;;;;5068787;28;43983;-70
2022/01/08 03:28:53;;;;;;;3.10;3.00;;;16.20;66.40;;;;;;5068753;28;43945;-70
2022/01/08 03:31:21;;;;;;;2.57;2.47;;;16.20;66.60;;;;;;5068876;28;43774;-70
2022/01/08 03:33:51;;;;;;;3.00;2.90;;;16.20;66.60;;;;;;5068357;28;44814;-70
2022/01/08 03:36:23;;;;;;;3.10;3.00;;;16.10;66.70;;;;;;5068241;28;44103;-70
2022/01/08 03:38:52;;;;;;;2.80;2.70;;;16.10;66.70;;;;;;5068357;28;43864;-70
2022/01/08 03:41:22;;;;;;;2.70;2.67;;;16.10;66.80;;;;;;5069156;28;44083;-69
2022/01/08 03:43:50;;;;;;;2.83;2.77;;;16.10;66.90;;;;;;5068056;28;44002;-70
2022/01/08 03:46:22;;;;;;;2.93;2.83;;;16.10;66.80;;;;;;5068159;28;44065;-70
2022/01/08 03:49:12;;;;;;;2.90;2.80;;;16.10;67.00;;;;;;5068632;28;43864;-70
2022/01/08 03:51:41;;;;;;;2.80;2.70;;;16.10;67.70;;;;;;5068986;28;43907;-69
2022/01/08 03:54:09;;;;;;;2.87;2.77;;;16.20;67.00;;;;;;5068172;28;43957;-69
2022/01/08 03:56:37;;;;;;;2.70;2.70;;;16.30;66.70;;;;;;5068166;28;43860;-70
2022/01/08 03:59:05;;;;;;;2.87;2.77;;;16.40;66.40;;;;;;5068333;28;44012;-69
2022/01/08 04:01:34;;;;;;;2.70;2.63;;;16.60;66.40;;;;;;5068282;28;44054;-69
2022/01/08 04:04:02;;;;;;;2.70;2.60;;;16.70;65.20;;;;;;5068257;28;44827;-69
2022/01/08 04:06:30;;;;;;;2.50;2.40;;;16.70;65.00;;;;;;5067773;28;44019;-70
2022/01/08 04:08:58;;;;;;;2.73;2.63;;;16.60;65.00;;;;;;5066588;28;43936;-70
2022/01/08 04:11:27;;;;;;;2.53;2.50;;;16.60;65.20;;;;;;5068215;28;43510;-69
2022/01/08 04:13:56;;;;;;;2.80;2.70;;;16.50;65.30;;;;;;5066228;28;46138;-69
2022/01/08 04:16:30;;;;;;;3.07;2.97;;;16.50;65.60;;;;;;5067643;28;44113;-70
2022/01/08 04:18:59;;;;;;;2.30;2.30;;;16.40;65.60;;;;;;5068003;28;43897;-70
2022/01/08 04:24:12;;;;;;;3.03;2.93;;;16.30;65.90;;;;;;5066255;28;46044;-69
2022/01/08 04:26:41;;;;;;;2.50;2.50;;;16.30;66.10;;;;;;5067466;28;44067;-70
2022/01/08 04:29:10;;;;;;;2.50;2.40;;;16.30;66.10;;;;;;5068023;28;43418;-69
2022/01/08 04:31:38;;;;;;;2.77;2.57;;;16.20;66.20;;;;;;5068177;28;44247;-70
2022/01/08 04:34:09;;;;;;;2.80;2.50;;;16.20;66.60;;;;;;5067744;28;43922;-71
2022/01/08 04:36:37;;;;;;;2.83;2.73;;;16.30;66.40;;;;;;5067670;28;43971;-70
2022/01/08 04:39:05;;;;;;;3.60;3.00;;;16.30;66.00;;;;;;5067822;28;43937;-70
2022/01/08 04:41:34;;;;;;;3.00;2.80;;;16.40;65.90;;;;;;5067760;28;43794;-69
2022/01/08 04:44:06;;;;;;;3.27;3.00;;;16.30;65.90;;;;;;5067087;28;43927;-70
2022/01/08 04:46:34;;;;;;;5.80;3.33;;;16.30;66.00;;;;;;5066805;28;43937;-70
2022/01/08 04:49:02;;;;;;;5.13;3.83;;;16.30;66.20;;;;;;5067315;28;43940;-69
2022/01/08 04:51:32;;;;;;;5.47;4.00;;;16.30;66.30;;;;;;5067652;28;43929;-70
2022/01/08 04:53:59;;;;;;;8.17;4.73;;;16.20;66.30;;;;;;5067199;28;43990;-70
2022/01/08 04:56:28;;;;;;;8.20;4.50;;;16.20;66.50;;;;;;5067217;28;43907;-70
2022/01/08 04:58:57;;;;;;;7.40;5.07;;;16.20;66.50;;;;;;5067055;28;43974;-71
2022/01/08 05:01:25;;;;;;;10.80;5.10;;;16.20;66.60;;;;;;5066135;28;44017;-70
2022/01/08 05:03:54;;;;;;;7.70;4.53;;;16.20;66.60;;;;;;5066700;28;45104;-70
2022/01/08 05:06:22;;;;;;;8.67;4.80;;;16.20;67.00;;;;;;5066791;28;43968;-70
2022/01/08 05:08:52;;;;;;;7.10;4.90;;;16.20;66.70;;;;;;5067004;28;43387;-69
2022/01/08 05:11:20;;;;;;;8.60;5.07;;;16.20;66.60;;;;;;5066043;28;44023;-70
2022/01/08 05:13:50;;;;;;;9.50;4.97;;;16.20;66.80;;;;;;5066940;28;44049;-70
2022/01/08 05:16:18;;;;;;;6.17;3.90;;;16.20;66.60;;;;;;5066831;28;43401;-69
2022/01/08 05:18:46;;;;;;;9.10;4.83;;;16.30;66.40;;;;;;5066927;28;43849;-71
2022/01/08 05:21:22;;;;;;;10.10;5.43;;;16.50;65.90;;;;;;5067268;28;43550;-69
2022/01/08 05:23:51;;;;;;;9.33;5.00;;;16.60;65.40;;;;;;5066990;28;44009;-69
2022/01/08 05:26:19;;;;;;;9.97;4.90;;;16.70;65.10;;;;;;5066514;28;44070;-70
2022/01/08 05:28:47;;;;;;;9.03;5.50;;;16.60;65.00;;;;;;5066662;28;43842;-69
2022/01/08 05:31:18;;;;;;;9.43;5.10;;;16.60;65.30;;;;;;5067022;28;43940;-69
2022/01/08 05:33:48;;;;;;;10.80;5.27;;;16.50;65.50;;;;;;5066953;28;43955;-69
2022/01/08 05:36:15;;;;;;;9.80;5.00;;;16.40;65.60;;;;;;5066610;28;43984;-69
2022/01/08 05:38:44;;;;;;;7.53;5.07;;;16.40;65.80;;;;;;5066726;28;44057;-69
2022/01/08 05:41:14;;;;;;;11.27;5.53;;;16.30;66.00;;;;;;5065545;28;43836;-70
2022/01/08 05:43:42;;;;;;;12.73;5.87;;;16.30;66.10;;;;;;5066452;28;44054;-69
2022/01/08 05:46:11;;;;;;;9.37;4.97;;;16.20;66.20;;;;;;5066403;28;43904;-69
2022/01/08 05:48:40;;;;;;;8.63;4.90;;;16.20;66.20;;;;;;5066719;28;44038;-70
2022/01/08 05:51:08;;;;;;;6.53;4.87;;;16.20;66.30;;;;;;5066956;28;43983;-69
2022/01/08 05:53:37;;;;;;;9.17;5.30;;;16.20;66.60;;;;;;5066597;28;43918;-70
2022/01/08 05:56:05;;;;;;;10.20;5.57;;;16.20;66.50;;;;;;5066516;28;43355;-70
2022/01/08 05:58:35;;;;;;;12.50;5.50;;;16.30;66.30;;;;;;5068558;28;43398;-70
2022/01/08 06:01:04;;;;;;;7.90;5.20;;;16.30;65.90;;;;;;5070368;28;43846;-71
2022/01/08 06:03:32;;;;;;;8.33;4.70;;;16.40;65.80;;;;;;5069669;28;44016;-71
2022/01/08 06:06:02;;;;;;;9.17;5.40;;;16.40;65.90;;;;;;5063258;28;43976;-69
2022/01/08 06:08:31;;;;;;;7.73;5.20;;;16.30;66.00;;;;;;5063488;28;44091;-69
2022/01/08 06:10:59;;;;;;;7.53;5.10;;;16.30;66.10;;;;;;5064061;28;43352;-72
2022/01/08 06:13:27;;;;;;;8.93;5.00;;;16.30;66.30;;;;;;5069755;28;44043;-70
2022/01/08 06:15:57;;;;;;;6.37;4.60;;;16.20;66.30;;;;;;5069525;28;43990;-69
2022/01/08 06:18:25;;;;;;;7.57;5.27;;;16.20;66.50;;;;;;5069755;28;43466;-70
2022/01/08 06:20:55;;;;;;;5.97;4.67;;;16.20;66.60;;;;;;5068641;28;43931;-70
2022/01/08 06:23:23;;;;;;;7.03;4.77;;;16.10;66.50;;;;;;5069747;28;44970;-70
2022/01/08 06:25:51;;;;;;;8.00;4.60;;;16.10;66.70;;;;;;5069482;28;43930;-69
2022/01/08 06:28:19;;;;;;;8.77;4.90;;;16.10;66.70;;;;;;5069682;28;44031;-71
2022/01/08 06:30:48;;;;;;;6.67;4.33;;;16.10;66.70;;;;;;5069867;28;43930;-70
2022/01/08 06:33:17;;;;;;;10.20;5.10;;;16.10;66.80;;;;;;5069374;28;44050;-70
2022/01/08 06:35:46;;;;;;;10.07;5.13;;;16.10;66.90;;;;;;5069322;28;43979;-70
2022/01/08 06:38:15;;;;;;;9.37;4.73;;;16.20;66.80;;;;;;5069392;28;44044;-70
2022/01/08 06:40:43;;;;;;;6.73;4.40;;;16.30;66.30;;;;;;5069376;28;43542;-70
2022/01/08 06:43:11;;;;;;;7.43;4.83;;;16.40;65.80;;;;;;5069245;28;43975;-70
2022/01/08 06:45:39;;;;;;;6.77;4.67;;;16.60;65.30;;;;;;5069444;28;44211;-70
2022/01/08 06:48:07;;;;;;;6.33;4.33;;;16.60;65.00;;;;;;5069408;28;43980;-70
2022/01/08 06:50:37;;;;;;;6.70;4.70;;;16.60;65.00;;;;;;5068313;28;43825;-69
2022/01/08 06:53:05;;;;;;;5.63;4.40;;;16.60;65.20;;;;;;5069197;28;44051;-70
2022/01/08 06:55:33;;;;;;;5.37;4.20;;;16.50;65.30;;;;;;5069147;28;43947;-70
2022/01/08 06:58:01;;;;;;;4.57;4.07;;;16.50;65.60;;;;;;5069209;28;43421;-70
2022/01/08 07:00:29;;;;;;;6.37;4.37;;;16.40;65.70;;;;;;5069501;28;43549;-70
2022/01/08 07:02:59;;;;;;;6.60;4.17;;;16.30;65.80;;;;;;5068290;28;43990;-70
2022/01/08 07:05:28;;;;;;;4.63;3.97;;;16.30;65.90;;;;;;5068990;28;43800;-70
2022/01/08 07:07:57;;;;;;;4.87;4.37;;;16.30;66.10;;;;;;5068426;28;43603;-70
2022/01/08 07:10:25;;;;;;;6.40;4.30;;;16.30;66.20;;;;;;5069142;28;43962;-71
2022/01/08 07:12:54;;;;;;;5.73;4.20;;;16.30;66.20;;;;;;5069094;28;43883;-70
2022/01/08 07:15:22;;;;;;;5.73;4.27;;;16.20;66.30;;;;;;5068785;28;43994;-69
2022/01/08 07:17:50;;;;;;;5.87;4.10;;;16.30;66.30;;;;;;5068734;28;43978;-71
2022/01/08 07:20:18;;;;;;;5.13;3.67;;;16.30;65.90;;;;;;5069524;28;44077;-70
2022/01/08 07:22:46;;;;;;;6.07;4.30;;;16.40;65.80;;;;;;5068686;28;43964;-70
2022/01/08 07:25:16;;;;;;;4.43;4.00;;;16.40;65.90;;;;;;5068618;28;43909;-70
2022/01/08 07:27:44;;;;;;;5.30;4.07;;;16.30;65.90;;;;;;5068308;28;44046;-71
2022/01/08 07:30:12;;;;;;;4.30;3.73;;;16.30;66.00;;;;;;5068710;28;44003;-71
2022/01/08 07:32:41;;;;;;;5.73;3.90;;;16.30;66.20;;;;;;5068149;28;43898;-69
2022/01/08 07:35:10;;;;;;;4.40;4.03;;;16.20;66.20;;;;;;5068002;28;44066;-70
2022/01/08 07:37:39;;;;;;;4.43;4.03;;;16.20;66.30;;;;;;5068386;28;44063;-70
2022/01/08 07:40:08;;;;;;;4.47;4.03;;;16.10;66.40;;;;;;5068841;28;44072;-70
2022/01/08 07:42:37;;;;;;;4.37;4.03;;;16.10;66.50;;;;;;5068249;28;44206;-70
2022/01/08 07:45:06;;;;;;;4.40;3.80;;;16.10;66.50;;;;;;5067812;28;43952;-69
2022/01/08 07:47:34;;;;;;;3.63;3.33;;;16.10;66.60;;;;;;5066528;28;44039;-70
2022/01/08 07:50:02;;;;;;;4.33;3.67;;;16.10;66.60;;;;;;5068277;28;44060;-70
2022/01/08 07:52:30;;;;;;;3.97;3.60;;;16.10;66.70;;;;;;5067904;28;43971;-70
2022/01/08 07:54:58;;;;;;;4.20;3.67;;;16.10;66.80;;;;;;5067991;28;44089;-70
2022/01/08 07:57:27;;;;;;;4.70;3.80;;;16.10;66.70;;;;;;5067877;28;43429;-71
2022/01/08 07:59:56;;;;;;;4.70;3.80;;;16.20;66.40;;;;;;5068076;28;43959;-69
2022/01/08 08:02:24;;;;;;;3.57;3.30;;;16.40;66.10;;;;;;5065966;28;46203;-69
2022/01/08 08:04:53;;;;;;;4.17;3.73;;;16.50;65.50;;;;;;5067846;28;43960;-70
2022/01/08 08:07:29;;;;;;;3.50;3.30;;;16.50;65.00;;;;;;5067737;28;43964;-69
2022/01/08 08:09:57;;;;;;;3.53;3.23;;;16.50;64.90;;;;;;5067979;28;44276;-70
2022/01/08 08:12:25;;;;;;;3.43;3.23;;;16.50;65.10;;;;;;5067641;28;45116;-69
2022/01/08 08:14:53;;;;;;;3.53;3.23;;;16.50;65.40;;;;;;5067473;28;44026;-70
2022/01/08 08:17:22;;;;;;;3.80;3.40;;;16.40;65.50;;;;;;5067434;28;43908;-69
2022/01/08 08:19:50;;;;;;;3.93;3.53;;;16.40;65.70;;;;;;5067021;28;43904;-70
2022/01/08 08:22:18;;;;;;;3.57;3.37;;;16.30;65.80;;;;;;5067046;28;44052;-72
2022/01/08 08:24:47;;;;;;;3.53;3.23;;;16.30;65.90;;;;;;5067400;28;43844;-71
2022/01/08 08:27:14;;;;;;;3.03;2.93;;;16.30;66.00;;;;;;5067345;28;43904;-70
2022/01/08 08:29:42;;;;;;;3.40;3.20;;;16.20;66.00;;;;;;5065872;28;44214;-71
2022/01/08 08:32:10;;;;;;;3.30;3.03;;;16.20;66.10;;;;;;5046181;28;46686;-70
2022/01/08 08:34:40;;;;;;;4.57;3.87;;;16.20;66.20;;;;;;5060885;28;43990;-69
2022/01/08 08:37:09;;;;;;;3.03;2.83;;;16.20;66.30;;;;;;5061493;28;43579;-72
2022/01/08 08:39:37;;;;;;;3.60;3.30;;;16.30;66.20;;;;;;5061461;28;43838;-71
2022/01/08 08:42:06;;;;;;;3.70;3.10;;;16.30;65.90;;;;;;5067328;28;43898;-70
2022/01/08 08:44:34;;;;;;;3.43;3.10;;;16.30;65.70;;;;;;5066642;28;44082;-70
2022/01/08 08:47:03;;;;;;;3.40;3.10;;;16.30;65.80;;;;;;5067089;28;43964;-70
2022/01/08 08:49:32;;;;;;;3.43;3.20;;;16.30;66.00;;;;;;5067187;28;44209;-71
2022/01/08 08:52:01;;;;;;;3.10;2.90;;;16.20;66.10;;;;;;5066767;28;43900;-69
2022/01/08 08:54:29;;;;;;;3.13;2.93;;;16.20;66.20;;;;;;5067064;28;43944;-70
2022/01/08 08:56:57;;;;;;;2.80;2.60;;;16.20;66.30;;;;;;5067098;28;43910;-70
2022/01/08 08:59:25;;;;;;;3.30;3.10;;;16.10;66.30;;;;;;5067101;28;43756;-70
2022/01/08 09:01:55;;;;;;;2.90;2.80;;;16.10;66.40;;;;;;5066092;28;43971;-69
2022/01/08 09:04:24;;;;;;;3.10;2.90;;;16.10;66.50;;;;;;5067047;28;43953;-70
2022/01/08 09:06:52;;;;;;;3.03;2.87;;;16.10;66.60;;;;;;5066805;28;43888;-71
2022/01/08 09:09:24;;;;;;;3.00;2.83;;;16.10;66.70;;;;;;5065708;28;44160;-70
2022/01/08 09:11:53;;;;;;;3.00;2.80;;;16.10;66.60;;;;;;5066751;28;43969;-70
2022/01/08 09:14:21;;;;;;;2.87;2.70;;;16.10;66.60;;;;;;5066381;28;44028;-70
2022/01/08 09:16:51;;;;;;;3.00;2.80;;;16.10;66.70;;;;;;5065440;28;43881;-70
2022/01/08 09:19:19;;;;;;;3.00;2.80;;;16.20;66.50;;;;;;5067158;28;43939;-72
2022/01/08 09:21:47;;;;;;;3.10;2.90;;;16.30;66.10;;;;;;5064976;28;46193;-70
2022/01/08 09:24:15;;;;;;;2.97;2.77;;;16.40;65.70;;;;;;5066410;28;43844;-69
2022/01/08 09:26:44;;;;;;;2.90;2.70;;;16.50;65.00;;;;;;5066581;28;43346;-69
2022/01/08 09:29:12;;;;;;;2.30;2.20;;;16.60;64.80;;;;;;5066455;28;43866;-70
2022/01/08 09:31:40;;;;;;;2.47;2.33;;;16.50;64.60;;;;;;5064673;28;46258;-70
2022/01/08 09:34:08;;;;;;;3.23;3.00;;;16.50;64.90;;;;;;5065152;28;45240;-69
2022/01/08 09:36:37;;;;;;;2.80;2.70;;;16.40;65.10;;;;;;5065241;28;43944;-70
2022/01/08 09:39:05;;;;;;;2.90;2.70;;;16.30;65.30;;;;;;5065435;28;43958;-70
2022/01/08 09:41:34;;;;;;;2.57;2.47;;;16.30;65.50;;;;;;5064886;28;46277;-69
2022/01/08 09:44:03;;;;;;;2.83;2.73;;;16.20;65.70;;;;;;5065859;28;43999;-69
2022/01/08 09:46:31;;;;;;;2.40;2.30;;;16.20;65.90;;;;;;5066056;28;43951;-71
2022/01/08 09:48:59;;;;;;;2.70;2.50;;;16.20;66.00;;;;;;5066661;28;44414;-69
2022/01/08 09:51:27;;;;;;;2.67;2.50;;;16.10;65.90;;;;;;5065939;28;43955;-69
2022/01/08 09:53:56;;;;;;;3.20;3.00;;;16.10;66.00;;;;;;5064630;28;45921;-70
2022/01/08 09:56:25;;;;;;;2.57;2.40;;;16.10;66.20;;;;;;5066164;28;43441;-70
2022/01/08 09:58:53;;;;;;;2.63;2.53;;;16.10;66.30;;;;;;5066110;28;43877;-70
2022/01/08 10:01:27;;;;;;;2.80;2.63;;;16.20;65.90;;;;;;5065909;28;43980;-70
2022/01/08 10:03:56;;;;;;;2.40;2.30;;;16.30;65.70;;;;;;5066116;28;44165;-70
2022/01/08 10:06:24;;;;;;;2.20;2.10;;;16.30;65.60;;;;;;5064475;28;43940;-70
2022/01/08 10:08:52;;;;;;;2.53;2.37;;;16.30;65.60;;;;;;5066313;28;43974;-70
2022/01/08 10:11:20;;;;;;;2.20;2.10;;;16.20;65.70;;;;;;5064441;28;45608;-70
2022/01/08 10:13:52;;;;;;;2.30;2.20;;;16.20;66.00;;;;;;5065715;28;43988;-70
2022/01/08 10:19:19;;;;;;;2.83;2.63;;;16.10;66.10;;;;;;5066610;28;43971;-71
2022/01/08 10:21:48;;;;;;;2.80;2.63;;;16.10;66.20;;;;;;5064504;28;45658;-70
2022/01/08 10:24:20;;;;;;;2.40;2.30;;;16.10;66.30;;;;;;5065647;28;43991;-70
2022/01/08 10:26:51;;;;;;;2.40;2.30;;;16.10;66.40;;;;;;5065815;28;44019;-69
2022/01/08 10:29:20;;;;;;;2.40;2.30;;;16.10;66.40;;;;;;5065949;28;44209;-70
2022/01/08 10:31:50;;;;;;;2.40;2.30;;;16.00;66.40;;;;;;5065384;28;45814;-70
2022/01/08 10:34:20;;;;;;;2.47;2.27;;;16.10;66.60;;;;;;5065508;28;43809;-70
2022/01/08 10:36:49;;;;;;;2.23;2.13;;;16.00;66.60;;;;;;5065766;28;43379;-70
2022/01/08 10:39:20;;;;;;;2.50;2.40;;;16.10;66.80;;;;;;5066008;28;44206;-70
2022/01/08 10:41:51;;;;;;;2.40;2.30;;;16.20;66.60;;;;;;5065604;28;44000;-70
2022/01/08 10:44:20;;;;;;;2.30;2.20;;;16.30;66.20;;;;;;5065396;28;43968;-70
2022/01/08 10:46:56;;;;;;;2.20;2.10;;;16.40;65.80;;;;;;5068985;28;43888;-69
2022/01/08 10:49:34;;;;;;;2.30;2.20;;;16.50;66.20;;;;;;5063186;28;43949;-70
2022/01/08 10:52:03;;;;;;;2.10;2.00;;;16.50;65.20;;;;;;5063937;28;43920;-71
2022/01/08 10:54:32;;;;;;;2.20;2.10;;;16.50;65.30;;;;;;5068716;28;44002;-69
2022/01/08 10:57:03;;;;;;;2.00;1.90;;;16.40;65.40;;;;;;5069004;28;43825;-70
2022/01/08 10:59:31;;;;;;;2.10;2.00;;;16.30;65.60;;;;;;5068828;28;44229;-71
2022/01/08 11:02:00;;;;;;;2.30;2.20;;;16.30;65.80;;;;;;5068484;28;43633;-69
2022/01/08 11:04:40;;;;;;;2.13;2.03;;;16.30;66.10;;;;;;5068894;28;43940;-70
2022/01/08 11:07:11;;;;;;;2.07;1.97;;;16.20;66.10;;;;;;5069407;28;44128;-70
2022/01/08 11:09:39;;;;;;;1.77;1.77;;;16.20;66.30;;;;;;5069219;28;44229;-70
2022/01/08 11:12:10;;;;;;;1.80;1.80;;;16.20;66.40;;;;;;5068656;28;44992;-70
2022/01/08 11:14:48;;;;;;;1.80;1.80;;;16.10;67.10;;;;;;5068799;28;43888;-71
2022/01/08 11:17:18;;;;;;;2.03;1.93;;;16.10;66.50;;;;;;5068705;28;44090;-70
2022/01/08 11:19:49;;;;;;;1.87;1.87;;;16.10;66.80;;;;;;5062268;28;43853;-69
2022/01/08 11:22:20;;;;;;;1.57;1.57;;;16.20;66.60;;;;;;5062489;28;45085;-70
2022/01/08 11:24:52;;;;;;;1.83;1.73;;;16.30;66.30;;;;;;5067067;28;45253;-70
2022/01/08 11:27:23;;;;;;;2.13;2.03;;;16.30;66.10;;;;;;5068528;28;44075;-71
2022/01/08 11:29:57;;;;;;;1.93;1.90;;;16.30;66.30;;;;;;5068784;28;43991;-69
2022/01/08 11:32:25;;;;;;;2.03;1.93;;;16.20;66.30;;;;;;5068475;28;43895;-70
2022/01/08 11:34:55;;;;;;;1.60;1.60;;;16.20;66.40;;;;;;5068150;28;43885;-70
2022/01/08 11:37:24;;;;;;;1.70;1.70;;;16.20;66.60;;;;;;5068421;28;44061;-69
2022/01/08 11:39:52;;;;;;;1.60;1.60;;;16.10;66.60;;;;;;5068512;28;43526;-70
2022/01/08 11:42:22;;;;;;;1.60;1.60;;;16.10;67.50;;;;;;5068101;28;43930;-70
2022/01/08 11:44:51;;;;;;;1.90;1.80;;;16.10;66.80;;;;;;5067706;28;43326;-69
2022/01/08 11:47:21;;;;;;;1.60;1.60;;;16.10;66.90;;;;;;5068165;28;43493;-70
2022/01/08 11:49:49;;;;;;;1.60;1.60;;;16.10;67.00;;;;;;5068393;28;43920;-69
2022/01/08 11:52:24;;;;;;;1.53;1.53;;;16.10;67.00;;;;;;5067938;28;43918;-69
2022/01/08 11:54:53;;;;;;;1.80;1.80;;;16.10;67.00;;;;;;5066945;28;44081;-69
2022/01/08 11:57:22;;;;;;;1.77;1.70;;;16.10;67.10;;;;;;5067939;28;43520;-71
2022/01/08 11:59:56;;;;;;;1.70;1.70;;;16.10;67.30;;;;;;5068094;28;43991;-71
2022/01/08 12:02:38;;;;;;;1.50;1.50;;;16.10;67.00;;;;;;5066262;28;46151;-70
2022/01/08 12:05:06;;;;;;;1.77;1.67;;;16.30;66.80;;;;;;5068104;28;43976;-70
2022/01/08 12:07:38;;;;;;;2.13;1.50;;;16.30;66.40;;;;;;5068082;28;43952;-73
2022/01/08 12:10:13;;;;;;;1.67;1.57;;;16.40;65.60;;;;;;5068382;28;43996;-71
2022/01/08 12:12:46;;;;;;;1.70;1.70;;;16.40;65.40;;;;;;5067677;28;45096;-71
2022/01/08 12:15:14;;;;;;;1.50;1.50;;;16.40;65.70;;;;;;5067696;28;44053;-70
2022/01/08 12:17:56;;;;;;;1.47;1.47;;;16.40;65.90;;;;;;5067655;28;43343;-70
2022/01/08 12:20:40;;;;;;;1.50;1.50;;;16.30;66.00;;;;;;5067792;28;43885;-71
2022/01/08 12:23:30;;;;;;;1.47;1.47;;;16.30;66.10;;;;;;5067839;28;43955;-70
2022/01/08 12:25:59;;;;;;;1.67;1.57;;;16.20;66.30;;;;;;5067624;28;44053;-71
2022/01/08 12:28:56;;;;;;;1.90;1.80;;;16.20;66.40;;;;;;5067494;28;44016;-70
2022/01/08 12:31:25;;;;;;;1.50;1.50;;;16.10;66.00;;;;;;5067945;28;44055;-70
2022/01/08 12:34:42;;;;;;;1.40;1.40;;;16.10;65.90;;;;;;5067183;28;44056;-70
2022/01/08 12:37:12;;;;;;;1.50;1.50;;;16.10;66.10;;;;;;5062308;28;44099;-70
2022/01/08 12:39:49;;;;;;;1.70;1.63;;;16.10;66.10;;;;;;5067137;28;44067;-70
2022/01/08 12:42:43;;;;;;;1.40;1.40;;;16.10;66.00;;;;;;5067893;28;44055;-69
2022/01/08 12:45:14;;;;;;;1.60;1.60;;;16.20;65.90;;;;;;5067019;28;43964;-70
2022/01/08 12:47:44;;;;;;;1.87;1.73;;;16.30;65.20;;;;;;5060751;28;43913;-70
2022/01/08 12:50:26;;;;;;;1.87;1.70;;;16.50;64.90;;;;;;5061525;28;43956;-71
2022/01/08 12:53:14;;;;;;;1.57;1.47;;;16.50;64.80;;;;;;5067565;28;43915;-71
2022/01/08 12:55:44;;;;;;;1.40;1.40;;;16.40;65.20;;;;;;5067019;28;43942;-70
2022/01/08 12:58:13;;;;;;;1.30;1.30;;;16.40;65.50;;;;;;5067004;28;43973;-70
2022/01/08 13:01:00;;;;;;;1.30;1.30;;;16.30;65.70;;;;;;5066812;28;43968;-69
2022/01/08 13:03:29;;;;;;;1.47;1.47;;;16.30;66.00;;;;;;5066946;28;44031;-70
2022/01/08 13:05:58;;;;;;;1.40;1.40;;;16.20;66.80;;;;;;5064981;28;45158;-71
2022/01/08 13:08:27;;;;;;;1.40;1.40;;;16.20;66.20;;;;;;5065196;28;45252;-69
2022/01/08 13:11:00;;;;;;;1.73;1.40;;;16.10;66.20;;;;;;5066516;28;43962;-70
2022/01/08 13:13:28;;;;;;;1.50;1.50;;;16.10;66.40;;;;;;5067367;28;43381;-70
2022/01/08 13:15:56;;;;;;;1.43;1.43;;;16.10;66.40;;;;;;5066733;28;44042;-71
2022/01/08 13:18:25;;;;;;;1.30;1.30;;;16.10;66.50;;;;;;5066491;28;43469;-71